createdAt,value
2018-09-22T00:01:29.224Z,5.10
2018-09-22T00:03:57.114Z,4.93
2018-09-22T00:06:24.925Z,4.73
2018-09-22T00:08:52.742Z,4.63
2018-09-22T00:11:20.744Z,5.40
2018-09-22T00:13:48.557Z,4.73
2018-09-22T00:16:16.381Z,5.70
2018-09-22T00:18:44.233Z,5.47
2018-09-22T00:21:12.047Z,4.90
2018-09-22T00:23:39.863Z,4.87
2018-09-22T00:26:08.187Z,4.70
2018-09-22T00:28:37.140Z,5.10
2018-09-22T00:31:05.588Z,5.00
2018-09-22T00:33:33.440Z,5.37
2018-09-22T00:36:01.249Z,5.67
2018-09-22T00:38:29.068Z,5.20
2018-09-22T00:40:56.892Z,5.30
2018-09-22T00:43:25.379Z,5.23
2018-09-22T00:45:53.219Z,4.90
2018-09-22T00:48:21.275Z,4.83
2018-09-22T00:50:49.304Z,5.07
2018-09-22T00:53:17.208Z,5.30
2018-09-22T00:55:45.121Z,4.83
2018-09-22T00:58:12.934Z,5.23
2018-09-22T01:00:41.590Z,4.67
2018-09-22T01:03:09.642Z,4.67
2018-09-22T01:05:37.632Z,5.47
2018-09-22T01:08:06.617Z,5.00
2018-09-22T01:10:34.406Z,4.73
2018-09-22T01:13:02.250Z,4.57
2018-09-22T01:15:30.649Z,5.03
2018-09-22T01:17:58.568Z,5.10
2018-09-22T01:20:26.386Z,5.40
2018-09-22T01:22:54.181Z,5.20
2018-09-22T01:25:21.991Z,5.40
2018-09-22T01:27:49.815Z,5.43
2018-09-22T01:30:17.632Z,5.37
2018-09-22T01:32:45.427Z,5.23
2018-09-22T01:35:13.298Z,5.53
2018-09-22T01:37:43.140Z,4.93
2018-09-22T01:40:10.990Z,5.10
2018-09-22T01:42:38.844Z,5.17
2018-09-22T01:45:06.723Z,5.33
2018-09-22T01:47:34.599Z,4.90
2018-09-22T01:50:02.472Z,5.80
2018-09-22T01:52:30.359Z,6.27
2018-09-22T01:54:58.212Z,5.70
2018-09-22T01:57:26.031Z,6.47
2018-09-22T01:59:53.869Z,6.33
2018-09-22T02:02:21.825Z,5.80
2018-09-22T02:04:49.613Z,6.70
2018-09-22T02:07:17.535Z,7.00
2018-09-22T02:09:45.305Z,6.67
2018-09-22T02:12:13.103Z,6.23
2018-09-22T02:14:40.914Z,6.50
2018-09-22T02:17:08.739Z,6.47
2018-09-22T02:19:36.551Z,6.37
2018-09-22T02:22:04.352Z,7.13
2018-09-22T02:24:32.206Z,7.00
2018-09-22T02:26:59.998Z,6.90
2018-09-22T02:29:27.778Z,6.97
2018-09-22T02:31:55.627Z,7.00
2018-09-22T02:34:23.596Z,7.40
2018-09-22T02:36:51.408Z,7.10
2018-09-22T02:39:19.203Z,7.30
2018-09-22T02:41:47.117Z,7.17
2018-09-22T02:44:14.946Z,7.60
2018-09-22T02:46:42.726Z,7.77
2018-09-22T02:49:10.567Z,7.53
2018-09-22T02:51:38.397Z,9.20
2018-09-22T02:54:06.299Z,8.10
2018-09-22T02:56:38.912Z,8.10
2018-09-22T02:59:16.050Z,8.20
2018-09-22T03:04:15.971Z,8.07
2018-09-22T03:06:43.821Z,8.57
2018-09-22T03:09:11.880Z,8.57
2018-09-22T03:11:41.054Z,8.67
2018-09-22T03:14:09.371Z,8.17
2018-09-22T03:16:37.267Z,8.73
2018-09-22T03:19:05.149Z,8.80
2018-09-22T03:21:33.109Z,8.50
2018-09-22T03:24:01.081Z,9.30
2018-09-22T03:26:28.879Z,8.10
2018-09-22T03:28:56.863Z,8.20
2018-09-22T03:31:24.653Z,9.23
2018-09-22T03:33:52.546Z,8.70
2018-09-22T03:36:20.369Z,8.67
2018-09-22T03:38:48.159Z,8.87
2018-09-22T03:41:15.967Z,9.63
2018-09-22T03:43:43.895Z,9.53
2018-09-22T03:46:11.871Z,9.27
2018-09-22T03:48:39.723Z,9.57
2018-09-22T03:51:07.575Z,9.80
2018-09-22T03:53:35.354Z,10.00
2018-09-22T03:56:03.198Z,10.17
2018-09-22T03:58:32.195Z,11.23
2018-09-22T04:01:00.007Z,10.73
2018-09-22T04:03:27.839Z,11.00
2018-09-22T04:05:55.701Z,11.00
2018-09-22T04:08:23.519Z,11.07
2018-09-22T04:10:51.380Z,11.47
2018-09-22T04:13:19.247Z,11.23
2018-09-22T04:15:47.145Z,11.97
2018-09-22T04:18:15.031Z,10.87
2018-09-22T04:20:42.967Z,10.53
2018-09-22T04:23:10.773Z,10.87
2018-09-22T04:25:38.773Z,11.30
2018-09-22T04:28:06.883Z,11.17
2018-09-22T04:30:34.759Z,10.33
2018-09-22T04:33:02.635Z,9.93
2018-09-22T04:35:30.445Z,10.00
2018-09-22T04:38:00.976Z,10.07
2018-09-22T04:40:28.869Z,10.90
2018-09-22T04:42:56.716Z,10.83
2018-09-22T04:45:24.563Z,11.17
2018-09-22T04:47:52.345Z,11.23
2018-09-22T04:50:20.182Z,10.17
2018-09-22T04:52:48.032Z,9.33
2018-09-22T04:55:15.824Z,11.30
2018-09-22T04:57:43.589Z,9.00
2018-09-22T05:00:11.400Z,7.17
2018-09-22T05:02:39.182Z,6.83
2018-09-22T05:05:07.018Z,6.13
2018-09-22T05:07:34.943Z,6.47
2018-09-22T05:10:02.957Z,6.03
2018-09-22T05:12:31.012Z,7.63
2018-09-22T05:14:59.330Z,6.57
2018-09-22T05:17:27.180Z,6.00
2018-09-22T05:19:54.970Z,6.30
2018-09-22T05:22:22.784Z,7.33
2018-09-22T05:24:50.592Z,6.07
2018-09-22T05:27:18.414Z,6.60
2018-09-22T05:29:46.308Z,5.87
2018-09-22T05:32:14.179Z,5.17
2018-09-22T05:34:42.018Z,5.50
2018-09-22T05:37:09.805Z,4.93
2018-09-22T05:39:37.603Z,5.20
2018-09-22T05:42:05.375Z,5.57
2018-09-22T05:44:33.186Z,5.10
2018-09-22T05:47:00.970Z,5.30
2018-09-22T05:49:28.766Z,5.50
2018-09-22T05:51:56.531Z,5.87
2018-09-22T05:54:24.399Z,4.63
2018-09-22T05:56:52.192Z,4.63
2018-09-22T05:59:19.983Z,4.80
2018-09-22T06:01:47.784Z,4.60
2018-09-22T06:04:15.578Z,4.13
2018-09-22T06:06:43.379Z,4.30
2018-09-22T06:09:11.161Z,3.90
2018-09-22T06:11:39.025Z,3.60
2018-09-22T06:14:06.823Z,3.03
2018-09-22T06:16:34.690Z,4.43
2018-09-22T06:19:02.490Z,6.83
2018-09-22T06:21:30.306Z,6.40
2018-09-22T06:23:58.128Z,6.97
2018-09-22T06:26:25.919Z,6.20
2018-09-22T06:28:53.773Z,6.40
2018-09-22T06:31:21.539Z,7.40
2018-09-22T06:33:49.324Z,6.87
2018-09-22T06:36:17.100Z,7.30
2018-09-22T06:38:44.946Z,6.53
2018-09-22T06:41:12.731Z,8.53
2018-09-22T06:43:40.667Z,8.30
2018-09-22T06:46:08.525Z,7.73
2018-09-22T06:48:36.322Z,7.80
2018-09-22T06:51:04.124Z,8.20
2018-09-22T06:53:31.905Z,7.33
2018-09-22T06:55:59.692Z,6.70
2018-09-22T06:58:27.554Z,5.20
2018-09-22T07:00:55.425Z,5.30
2018-09-22T07:03:23.255Z,4.83
2018-09-22T07:05:51.039Z,3.93
2018-09-22T07:08:18.856Z,5.10
2018-09-22T07:10:46.650Z,4.97
2018-09-22T07:13:14.451Z,4.23
2018-09-22T07:15:42.277Z,5.40
2018-09-22T07:18:10.072Z,5.07
2018-09-22T07:20:38.023Z,4.90
2018-09-22T07:23:11.153Z,4.40
2018-09-22T07:25:38.948Z,5.67
2018-09-22T07:28:06.795Z,5.17
2018-09-22T07:30:34.602Z,5.20
2018-09-22T07:33:02.387Z,5.00
2018-09-22T07:35:30.174Z,5.03
2018-09-22T07:37:57.941Z,4.93
2018-09-22T07:40:25.739Z,4.90
2018-09-22T07:42:53.520Z,5.03
2018-09-22T07:45:21.421Z,4.50
2018-09-22T07:47:49.268Z,4.60
2018-09-22T07:50:17.150Z,5.37
2018-09-22T07:52:44.927Z,4.83
2018-09-22T07:55:12.696Z,4.97
2018-09-22T07:57:40.482Z,4.07
2018-09-22T08:00:08.279Z,3.97
2018-09-22T08:02:36.168Z,4.33
2018-09-22T08:05:04.059Z,3.80
2018-09-22T08:07:31.863Z,3.70
2018-09-22T08:09:59.658Z,4.03
2018-09-22T08:12:27.443Z,4.03
2018-09-22T08:14:56.171Z,3.40
2018-09-22T08:17:23.988Z,3.80
2018-09-22T08:19:51.776Z,4.13
2018-09-22T08:22:19.544Z,3.77
2018-09-22T08:24:47.384Z,3.40
2018-09-22T08:27:15.191Z,3.40
2018-09-22T08:29:42.964Z,3.67
2018-09-22T08:32:10.881Z,5.80
2018-09-22T08:34:38.690Z,3.90
2018-09-22T08:37:06.647Z,3.60
2018-09-22T08:39:34.312Z,3.43
2018-09-22T08:42:02.185Z,3.67
2018-09-22T08:44:29.978Z,3.20
2018-09-22T08:46:57.836Z,3.80
2018-09-22T08:49:25.659Z,3.17
2018-09-22T08:51:53.486Z,5.50
2018-09-22T08:54:21.278Z,3.33
2018-09-22T08:56:49.075Z,4.47
2018-09-22T08:59:16.863Z,3.03
2018-09-22T09:01:44.635Z,3.60
2018-09-22T09:04:12.505Z,3.40
2018-09-22T09:06:40.457Z,3.27
2018-09-22T09:09:08.834Z,3.40
2018-09-22T09:11:36.716Z,3.30
2018-09-22T09:14:04.585Z,3.90
2018-09-22T09:16:32.396Z,3.20
2018-09-22T09:19:00.284Z,3.67
2018-09-22T09:21:28.099Z,3.40
2018-09-22T09:23:55.914Z,3.13
2018-09-22T09:26:23.806Z,3.37
2018-09-22T09:28:51.585Z,4.10
2018-09-22T09:31:19.794Z,4.00
2018-09-22T09:33:48.332Z,3.67
2018-09-22T09:36:16.134Z,3.80
2018-09-22T09:38:43.926Z,2.97
2018-09-22T09:41:11.860Z,3.20
2018-09-22T09:43:40.247Z,3.20
2018-09-22T09:46:08.953Z,4.03
2018-09-22T09:48:36.848Z,3.23
2018-09-22T09:51:04.750Z,3.20
2018-09-22T09:53:32.919Z,3.30
2018-09-22T09:56:00.784Z,3.33
2018-09-22T09:58:28.779Z,3.13
2018-09-22T10:00:56.483Z,3.40
2018-09-22T10:03:24.254Z,4.03
2018-09-22T10:05:52.294Z,4.43
2018-09-22T10:08:20.963Z,3.23
2018-09-22T10:10:49.175Z,5.87
2018-09-22T10:13:17.023Z,3.57
2018-09-22T10:15:44.801Z,3.80
2018-09-22T10:18:13.394Z,3.67
2018-09-22T10:20:41.178Z,3.30
2018-09-22T10:23:09.093Z,3.17
2018-09-22T10:25:36.870Z,3.03
2018-09-22T10:28:04.815Z,3.03
2018-09-22T10:30:32.594Z,3.27
2018-09-22T10:33:00.426Z,3.00
2018-09-22T10:35:28.235Z,3.17
2018-09-22T10:37:55.998Z,3.30
2018-09-22T10:40:23.782Z,3.53
2018-09-22T10:42:51.577Z,2.90
2018-09-22T10:45:19.421Z,3.07
2018-09-22T10:47:47.190Z,2.90
2018-09-22T10:50:14.989Z,2.73
2018-09-22T10:52:42.801Z,2.50
2018-09-22T10:55:10.607Z,2.80
2018-09-22T10:57:38.565Z,2.70
2018-09-22T11:00:06.358Z,2.57
2018-09-22T11:02:34.200Z,2.70
2018-09-22T11:05:02.049Z,2.43
2018-09-22T11:07:30.361Z,2.80
2018-09-22T11:09:58.138Z,2.53
2018-09-22T11:12:25.922Z,2.77
2018-09-22T11:14:53.710Z,2.77
2018-09-22T11:17:21.503Z,2.60
2018-09-22T11:19:49.347Z,2.83
2018-09-22T11:22:17.132Z,2.60
2018-09-22T11:24:45.041Z,3.13
2018-09-22T11:27:12.823Z,2.70
2018-09-22T11:29:40.586Z,2.83
2018-09-22T11:32:08.362Z,2.30
2018-09-22T11:34:36.192Z,2.30
2018-09-22T11:37:04.007Z,2.50
2018-09-22T11:39:31.780Z,2.37
2018-09-22T11:41:59.590Z,2.50
2018-09-22T11:44:27.346Z,2.20
2018-09-22T11:46:55.205Z,2.53
2018-09-22T11:49:23.000Z,2.20
2018-09-22T11:51:50.779Z,2.47
2018-09-22T11:54:18.566Z,2.33
2018-09-22T11:56:46.354Z,2.40
2018-09-22T11:59:14.138Z,2.53
2018-09-22T12:01:42.017Z,2.27
2018-09-22T12:04:09.804Z,2.27
2018-09-22T12:06:37.631Z,2.07
2018-09-22T12:09:07.016Z,2.00
2018-09-22T12:11:34.802Z,2.00
2018-09-22T12:14:02.589Z,2.03
2018-09-22T12:16:30.482Z,2.13
2018-09-22T12:18:58.315Z,2.00
2018-09-22T12:21:26.111Z,2.10
2018-09-22T12:23:54.051Z,2.67
2018-09-22T12:26:21.825Z,2.13
2018-09-22T12:28:49.599Z,2.00
2018-09-22T12:31:17.482Z,1.93
2018-09-22T12:33:45.246Z,2.20
2018-09-22T12:36:13.011Z,2.00
2018-09-22T12:38:40.911Z,2.57
2018-09-22T12:41:08.736Z,4.90
2018-09-22T12:43:36.534Z,2.30
2018-09-22T12:46:04.372Z,2.20
2018-09-22T12:48:32.158Z,2.07
2018-09-22T12:50:59.935Z,2.90
2018-09-22T12:53:27.853Z,2.93
2018-09-22T12:55:55.610Z,2.70
2018-09-22T12:58:23.592Z,2.40
2018-09-22T13:00:51.385Z,2.00
2018-09-22T13:03:19.262Z,2.00
2018-09-22T13:05:47.076Z,2.10
2018-09-22T13:08:14.838Z,2.00
2018-09-22T13:10:42.655Z,2.30
2018-09-22T13:13:10.419Z,2.37
2018-09-22T13:15:38.352Z,2.20
2018-09-22T13:18:06.118Z,2.10
2018-09-22T13:20:33.891Z,2.30
2018-09-22T13:23:01.686Z,2.00
2018-09-22T13:25:29.458Z,2.23
2018-09-22T13:27:57.237Z,2.20
2018-09-22T13:30:25.072Z,2.33
2018-09-22T13:32:52.885Z,2.00
2018-09-22T13:35:20.659Z,2.30
2018-09-22T13:37:48.487Z,2.20
2018-09-22T13:40:16.265Z,2.00
2018-09-22T13:42:44.030Z,1.90
2018-09-22T13:45:11.969Z,2.33
2018-09-22T13:47:39.738Z,2.53
2018-09-22T13:50:07.562Z,1.83
2018-09-22T13:52:35.548Z,2.00
2018-09-22T13:55:03.322Z,1.80
2018-09-22T13:57:31.098Z,1.83
2018-09-22T13:59:58.867Z,1.93
2018-09-22T14:02:26.716Z,1.87
2018-09-22T14:04:54.483Z,1.83
2018-09-22T14:07:22.266Z,1.97
2018-09-22T14:09:50.054Z,2.00
2018-09-22T14:12:17.900Z,1.70
2018-09-22T14:14:45.667Z,1.70
2018-09-22T14:17:13.466Z,2.00
2018-09-22T14:19:41.274Z,2.07
2018-09-22T14:22:09.350Z,2.03
2018-09-22T14:24:40.593Z,2.00
2018-09-22T14:27:10.631Z,2.00
2018-09-22T14:29:38.470Z,2.10
2018-09-22T14:32:07.944Z,2.50
2018-09-22T14:34:35.706Z,2.87
2018-09-22T14:37:03.572Z,3.30
2018-09-22T14:39:31.343Z,2.20
2018-09-22T14:41:59.192Z,2.40
2018-09-22T14:44:27.024Z,2.57
2018-09-22T14:46:54.890Z,2.47
2018-09-22T14:49:22.664Z,3.30
2018-09-22T14:51:50.426Z,2.90
2018-09-22T14:54:18.214Z,2.73
2018-09-22T14:56:45.978Z,2.30
2018-09-22T14:59:13.761Z,2.80
2018-09-22T15:01:41.539Z,2.40
2018-09-22T15:04:09.319Z,2.50
2018-09-22T15:06:37.102Z,2.37
2018-09-22T15:09:06.355Z,2.57
2018-09-22T15:11:34.134Z,2.20
2018-09-22T15:14:01.907Z,2.70
2018-09-22T15:16:29.690Z,2.23
2018-09-22T15:18:57.472Z,2.10
2018-09-22T15:21:25.271Z,2.40
2018-09-22T15:23:53.210Z,2.43
2018-09-22T15:26:20.944Z,2.47
2018-09-22T15:28:48.810Z,2.50
2018-09-22T15:31:16.740Z,2.63
2018-09-22T15:33:44.503Z,2.40
2018-09-22T15:36:12.284Z,2.70
2018-09-22T15:38:40.128Z,3.33
2018-09-22T15:41:07.908Z,3.30
2018-09-22T15:43:35.735Z,3.00
2018-09-22T15:46:03.592Z,3.13
2018-09-22T15:48:31.439Z,3.80
2018-09-22T15:50:59.217Z,8.10
2018-09-22T15:53:27.184Z,4.63
2018-09-22T15:55:54.910Z,8.53
2018-09-22T15:58:22.691Z,8.63
2018-09-22T16:00:50.510Z,4.60
2018-09-22T16:03:18.319Z,5.70
2018-09-22T16:05:46.188Z,4.37
2018-09-22T16:08:13.967Z,4.43
2018-09-22T16:10:41.750Z,3.97
2018-09-22T16:13:09.533Z,3.83
2018-09-22T16:15:37.428Z,3.80
2018-09-22T16:18:05.280Z,3.57
2018-09-22T16:20:33.094Z,3.50
2018-09-22T16:23:00.889Z,3.97
2018-09-22T16:25:28.677Z,3.80
2018-09-22T16:27:56.482Z,4.30
2018-09-22T16:30:24.318Z,4.67
2018-09-22T16:32:52.119Z,5.00
2018-09-22T16:35:20.567Z,4.10
2018-09-22T16:37:48.592Z,3.67
2018-09-22T16:40:16.537Z,4.60
2018-09-22T16:42:44.322Z,5.20
2018-09-22T16:45:12.145Z,4.17
2018-09-22T16:47:39.943Z,5.33
2018-09-22T16:50:07.905Z,5.27
2018-09-22T16:52:35.676Z,5.43
2018-09-22T16:55:03.606Z,5.37
2018-09-22T16:57:31.379Z,5.47
2018-09-22T16:59:59.254Z,6.20
2018-09-22T17:02:27.051Z,6.93
2018-09-22T17:04:54.835Z,5.37
2018-09-22T17:07:22.634Z,9.57
2018-09-22T17:09:50.480Z,8.13
2018-09-22T17:12:18.294Z,6.90
2018-09-22T17:14:46.087Z,6.20
2018-09-22T17:17:13.946Z,7.97
2018-09-22T17:19:41.735Z,10.30
2018-09-22T17:22:09.621Z,11.20
2018-09-22T17:24:37.395Z,9.70
2018-09-22T17:27:05.272Z,6.03
2018-09-22T17:29:33.059Z,6.70
2018-09-22T17:32:00.871Z,6.37
2018-09-22T17:34:28.715Z,7.27
2018-09-22T17:36:56.503Z,5.97
2018-09-22T17:39:24.302Z,4.97
2018-09-22T17:41:52.078Z,5.97
2018-09-22T17:44:20.002Z,6.37
2018-09-22T17:46:47.788Z,12.00
2018-09-22T17:49:15.808Z,11.17
2018-09-22T17:51:46.654Z,12.90
2018-09-22T17:54:14.558Z,12.63
2018-09-22T17:56:42.356Z,7.83
2018-09-22T17:59:10.243Z,7.17
2018-09-22T18:01:38.240Z,6.47
2018-09-22T18:04:06.460Z,6.40
2018-09-22T18:06:34.443Z,5.20
2018-09-22T18:09:07.135Z,5.40
2018-09-22T18:11:38.427Z,5.07
2018-09-22T18:14:06.522Z,4.60
2018-09-22T18:16:34.308Z,5.30
2018-09-22T18:19:02.138Z,4.50
2018-09-22T18:21:30.089Z,3.67
2018-09-22T18:23:57.879Z,2.70
2018-09-22T18:26:25.673Z,3.30
2018-09-22T18:28:53.490Z,2.80
2018-09-22T18:31:21.279Z,2.90
2018-09-22T18:33:49.124Z,3.07
2018-09-22T18:36:16.900Z,5.13
2018-09-22T18:38:44.730Z,3.50
2018-09-22T18:41:12.613Z,10.43
2018-09-22T18:43:40.387Z,8.03
2018-09-22T18:46:08.200Z,6.03
2018-09-22T18:48:35.991Z,7.30
2018-09-22T18:51:03.815Z,7.37
2018-09-22T18:53:31.593Z,11.00
2018-09-22T18:55:59.584Z,8.73
2018-09-22T18:58:27.419Z,8.93
2018-09-22T19:00:55.212Z,9.80
2018-09-22T19:03:23.010Z,9.00
2018-09-22T19:05:50.861Z,6.77
2018-09-22T19:08:18.728Z,8.43
2018-09-22T19:10:46.501Z,7.87
2018-09-22T19:13:17.843Z,5.70
2018-09-22T19:15:49.869Z,5.77
2018-09-22T19:18:32.463Z,4.37
2018-09-22T19:21:06.867Z,4.80
2018-09-22T19:23:39.296Z,4.27
2018-09-22T19:26:13.834Z,4.30
2018-09-22T19:28:48.314Z,4.40
2018-09-22T19:31:20.822Z,6.67
2018-09-22T19:33:51.951Z,19.17
2018-09-22T19:36:24.686Z,26.50
2018-09-22T19:39:04.687Z,12.70
2018-09-22T19:41:36.186Z,11.93
2018-09-22T19:44:42.612Z,11.43
2018-09-22T19:47:21.288Z,22.53
2018-09-22T19:49:53.441Z,20.47
2018-09-22T19:52:29.870Z,11.10
2018-09-22T19:54:57.705Z,9.57
2018-09-22T19:57:25.546Z,9.77
2018-09-22T19:59:53.289Z,10.67
2018-09-22T20:02:21.266Z,10.10
2018-09-22T20:04:49.034Z,9.33
2018-09-22T20:07:16.823Z,9.23
2018-09-22T20:09:44.624Z,9.20
2018-09-22T20:12:12.433Z,10.13
2018-09-22T20:14:40.214Z,8.17
2018-09-22T20:17:08.035Z,7.73
2018-09-22T20:19:35.900Z,13.40
2018-09-22T20:22:03.828Z,10.70
2018-09-22T20:24:31.687Z,10.50
2018-09-22T20:26:59.458Z,10.73
2018-09-22T20:29:27.305Z,12.97
2018-09-22T20:31:55.107Z,14.47
2018-09-22T20:34:22.970Z,14.83
2018-09-22T20:36:50.810Z,17.23
2018-09-22T20:39:18.660Z,20.63
2018-09-22T20:41:46.502Z,15.83
2018-09-22T20:44:14.301Z,20.30
2018-09-22T20:46:42.115Z,16.67
2018-09-22T20:49:09.900Z,16.07
2018-09-22T20:51:37.702Z,17.17
2018-09-22T20:54:05.687Z,19.63
2018-09-22T20:56:33.453Z,19.90
2018-09-22T20:59:01.595Z,20.07
2018-09-22T21:01:29.369Z,19.27
2018-09-22T21:03:57.145Z,18.27
2018-09-22T21:06:25.000Z,14.83
2018-09-22T21:08:52.826Z,13.97
2018-09-22T21:11:20.594Z,10.67
2018-09-22T21:13:48.377Z,7.60
2018-09-22T21:16:16.242Z,6.20
2018-09-22T21:18:44.033Z,5.70
2018-09-22T21:21:11.807Z,6.03
2018-09-22T21:23:39.686Z,6.20
2018-09-22T21:26:07.472Z,6.33
2018-09-22T21:28:35.292Z,7.47
2018-09-22T21:31:03.062Z,6.97
2018-09-22T21:33:30.863Z,6.97
2018-09-22T21:35:58.638Z,6.13
2018-09-22T21:38:26.421Z,6.07
2018-09-22T21:40:54.205Z,6.33
2018-09-22T21:43:22.018Z,6.33
2018-09-22T21:45:49.822Z,6.43
2018-09-22T21:48:17.626Z,7.03
2018-09-22T21:50:45.479Z,6.40
2018-09-22T21:53:13.331Z,6.40
2018-09-22T21:55:41.166Z,6.60
2018-09-22T21:58:08.950Z,6.73
2018-09-22T22:00:36.779Z,6.33
2018-09-22T22:03:04.630Z,5.97
2018-09-22T22:05:32.422Z,6.50
2018-09-22T22:08:00.246Z,6.30
2018-09-22T22:10:28.059Z,6.40
2018-09-22T22:12:55.962Z,6.57
2018-09-22T22:15:23.754Z,6.50
2018-09-22T22:17:51.549Z,6.20
2018-09-22T22:20:19.370Z,5.07
2018-09-22T22:22:47.172Z,6.50
2018-09-22T22:25:15.006Z,6.67
2018-09-22T22:27:42.902Z,6.83
2018-09-22T22:30:11.294Z,7.37
2018-09-22T22:32:39.087Z,6.67
2018-09-22T22:35:07.065Z,7.43
2018-09-22T22:37:34.847Z,7.00
2018-09-22T22:40:02.677Z,6.87
2018-09-22T22:42:30.560Z,6.73
2018-09-22T22:44:58.370Z,7.03
2018-09-22T22:47:26.221Z,6.53
2018-09-22T22:49:54.027Z,5.10
2018-09-22T22:52:21.830Z,5.33
2018-09-22T22:54:49.615Z,4.80
2018-09-22T22:57:17.481Z,6.53
2018-09-22T22:59:45.262Z,6.33
2018-09-22T23:02:13.081Z,6.13
2018-09-22T23:04:40.871Z,5.40
2018-09-22T23:07:08.642Z,4.67
2018-09-22T23:09:36.454Z,4.70
2018-09-22T23:12:04.229Z,4.37
2018-09-22T23:14:32.114Z,5.70
2018-09-22T23:16:59.880Z,5.47
2018-09-22T23:19:27.735Z,6.40
2018-09-22T23:21:55.581Z,5.80
2018-09-22T23:24:23.662Z,5.97
2018-09-22T23:26:51.513Z,6.00
2018-09-22T23:29:19.412Z,5.67
2018-09-22T23:31:47.263Z,5.67
2018-09-22T23:34:15.030Z,5.90
2018-09-22T23:36:42.868Z,5.20
2018-09-22T23:39:11.885Z,5.83
2018-09-22T23:41:39.949Z,5.63
2018-09-22T23:44:08.242Z,5.83
2018-09-22T23:46:36.110Z,5.67
2018-09-22T23:49:04.001Z,5.50
2018-09-22T23:51:32.091Z,5.53
2018-09-22T23:53:59.927Z,6.07
2018-09-22T23:56:28.138Z,5.20
2018-09-22T23:58:55.982Z,6.33
